Time;durP1;ratioP1;P1;durP2;ratioP2;P2;SDS_P1;SDS_P2;PMS_P1;PMS_P2;Temp;Humidity;BMP_temperature;BMP_pressure;BME280_temperature;BME280_humidity;BME280_pressure;Samples;Min_cycle;Max_cycle;Signal;HPM_P1;HPM_P2
2022/06/12 00:01:30;;;;;;;0.10;0.10;;;;;;;;;;5052189;28;20519;-72
2022/06/12 00:03:59;;;;;;;0.10;0.10;;;;;;;;;;5048575;28;20061;-73
2022/06/12 00:06:34;;;;;;;0.10;0.10;;;;;;;;;;5030014;28;20080;-72
2022/06/12 00:09:03;;;;;;;0.10;0.10;;;;;;;;;;5031586;28;20571;-72
2022/06/12 00:11:35;;;;;;;0.52;0.52;;;;;;;;;;5041200;28;20775;-72
2022/06/12 00:14:04;;;;;;;0.00;0.00;;;;;;;;;;5052324;28;20089;-70
2022/06/12 00:16:34;;;;;;;0.15;0.15;;;;;;;;;;5052290;28;20099;-69
2022/06/12 00:19:04;;;;;;;0.10;0.10;;;;;;;;;;5051433;28;20519;-69
2022/06/12 00:21:32;;;;;;;0.03;0.03;;;;;;;;;;5044019;28;20096;-70
2022/06/12 00:24:02;;;;;;;0.25;0.25;;;;;;;;;;5032220;28;20046;-70
2022/06/12 00:26:33;;;;;;;0.00;0.00;;;;;;;;;;5031742;28;20485;-70
2022/06/12 00:29:04;;;;;;;0.68;0.68;;;;;;;;;;5031049;28;20107;-70
2022/06/12 00:31:32;;;;;;;0.10;0.10;;;;;;;;;;5033291;28;20124;-70
2022/06/12 00:34:02;;;;;;;0.00;0.00;;;;;;;;;;5047891;28;20448;-70
2022/06/12 00:36:31;;;;;;;0.00;0.00;;;;;;;;;;5051627;28;20080;-69
2022/06/12 00:38:59;;;;;;;0.00;0.00;;;;;;;;;;5039338;28;20133;-70
2022/06/12 00:41:27;;;;;;;0.00;0.00;;;;;;;;;;5031604;28;20132;-70
2022/06/12 00:43:57;;;;;;;0.10;0.10;;;;;;;;;;5031186;28;20081;-69
2022/06/12 00:46:37;;;;;;;0.20;0.20;;;;;;;;;;5031293;28;20053;-70
2022/06/12 00:49:09;;;;;;;0.20;0.20;;;;;;;;;;5030939;28;20054;-69
2022/06/12 00:51:38;;;;;;;0.00;0.00;;;;;;;;;;5039203;28;20041;-70
2022/06/12 00:54:07;;;;;;;0.00;0.00;;;;;;;;;;5051392;28;20099;-70
2022/06/12 00:56:37;;;;;;;0.20;0.20;;;;;;;;;;5035288;28;20057;-70
2022/06/12 00:59:08;;;;;;;0.00;0.00;;;;;;;;;;5030155;28;20085;-69
2022/06/12 01:01:40;;;;;;;0.50;0.50;;;;;;;;;;5031396;28;20050;-70
2022/06/12 01:06:56;;;;;;;0.10;0.10;;;;;;;;;;5030353;28;20053;-70
2022/06/12 01:09:28;;;;;;;0.10;0.10;;;;;;;;;;5031046;28;20073;-69
2022/06/12 01:11:57;;;;;;;0.10;0.10;;;;;;;;;;5041285;28;20092;-70
2022/06/12 01:14:29;;;;;;;0.15;0.15;;;;;;;;;;5030971;28;20100;-70
2022/06/12 01:16:58;;;;;;;0.30;0.30;;;;;;;;;;5029989;28;20061;-70
2022/06/12 01:19:29;;;;;;;0.00;0.00;;;;;;;;;;5030954;28;20053;-70
2022/06/12 01:22:05;;;;;;;0.10;0.10;;;;;;;;;;5030878;28;20045;-70
2022/06/12 01:24:46;;;;;;;0.10;0.10;;;;;;;;;;5031339;28;20120;-69
2022/06/12 01:27:30;;;;;;;0.10;0.10;;;;;;;;;;5030193;28;20055;-70
2022/06/12 01:30:03;;;;;;;0.05;0.05;;;;;;;;;;5029157;28;20552;-70
2022/06/12 01:32:34;;;;;;;0.00;0.00;;;;;;;;;;5030973;28;20169;-70
2022/06/12 01:35:07;;;;;;;0.28;0.28;;;;;;;;;;5030716;28;20053;-70
2022/06/12 01:37:40;;;;;;;0.00;0.00;;;;;;;;;;5030359;28;20041;-70
2022/06/12 01:40:16;;;;;;;0.00;0.00;;;;;;;;;;5042834;28;20507;-70
2022/06/12 01:42:48;;;;;;;0.00;0.00;;;;;;;;;;5051110;28;20590;-70
2022/06/12 01:45:28;;;;;;;0.03;0.03;;;;;;;;;;5050932;28;20076;-70
2022/06/12 01:48:01;;;;;;;0.00;0.00;;;;;;;;;;5031064;28;20045;-70
2022/06/12 01:50:34;;;;;;;0.10;0.10;;;;;;;;;;5030810;28;20144;-70
2022/06/12 01:53:07;;;;;;;0.10;0.10;;;;;;;;;;5030764;28;20454;-70
2022/06/12 01:55:42;;;;;;;0.03;0.03;;;;;;;;;;5030825;28;20472;-70
2022/06/12 01:58:10;;;;;;;;;;;;;;;;;;5053188;28;20048;-70
2022/06/12 02:00:43;;;;;;;0.00;0.00;;;;;;;;;;5054310;28;19920;-70
2022/06/12 02:03:13;;;;;;;0.00;0.00;;;;;;;;;;5049573;28;20159;-70
2022/06/12 02:05:46;;;;;;;0.30;0.30;;;;;;;;;;5034169;28;20049;-70
2022/06/12 02:08:17;;;;;;;0.10;0.10;;;;;;;;;;5033642;28;20057;-70
2022/06/12 02:10:48;;;;;;;0.00;0.00;;;;;;;;;;5037694;28;20052;-70
2022/06/12 02:13:19;;;;;;;0.10;0.10;;;;;;;;;;5054206;28;20099;-70
2022/06/12 02:15:55;;;;;;;0.00;0.00;;;;;;;;;;5054210;28;20040;-70
2022/06/12 02:18:30;;;;;;;0.00;0.00;;;;;;;;;;5053713;28;20059;-70
2022/06/12 02:21:02;;;;;;;0.00;0.00;;;;;;;;;;5043397;28;20424;-70
2022/06/12 02:23:32;;;;;;;0.10;0.10;;;;;;;;;;5033919;28;20053;-70
2022/06/12 02:26:02;;;;;;;0.10;0.10;;;;;;;;;;5040883;28;20165;-70
2022/06/12 02:28:33;;;;;;;0.03;0.03;;;;;;;;;;5033453;28;20049;-70
2022/06/12 02:31:04;;;;;;;0.00;0.00;;;;;;;;;;5034284;28;20049;-70
2022/06/12 02:33:36;;;;;;;0.10;0.10;;;;;;;;;;5034239;28;20133;-71
2022/06/12 02:36:25;;;;;;;0.00;0.00;;;;;;;;;;5034118;28;20045;-70
2022/06/12 02:38:56;;;;;;;0.13;0.13;;;;;;;;;;5033751;28;20050;-70
2022/06/12 02:41:31;;;;;;;0.22;0.22;;;;;;;;;;5043838;28;20504;-70
2022/06/12 02:44:06;;;;;;;0.00;0.00;;;;;;;;;;5053953;28;20405;-70
2022/06/12 02:46:37;;;;;;;0.00;0.00;;;;;;;;;;5053724;28;20056;-71
2022/06/12 02:49:06;;;;;;;0.15;0.15;;;;;;;;;;5053814;28;20057;-71
2022/06/12 02:51:37;;;;;;;0.00;0.00;;;;;;;;;;5047893;28;20544;-71
2022/06/12 02:54:11;;;;;;;0.20;0.20;;;;;;;;;;5045638;28;20088;-71
2022/06/12 02:56:44;;;;;;;0.00;0.00;;;;;;;;;;5032462;28;20045;-71
2022/06/12 02:59:23;;;;;;;0.00;0.00;;;;;;;;;;5038730;28;20099;-70
2022/06/12 03:02:00;;;;;;;0.00;0.00;;;;;;;;;;5054307;28;20063;-70
2022/06/12 03:04:32;;;;;;;1.02;1.00;;;;;;;;;;5055013;28;20346;-71
2022/06/12 03:07:00;;;;;;;0.00;0.00;;;;;;;;;;5053623;28;20048;-71
2022/06/12 03:09:29;;;;;;;0.30;0.30;;;;;;;;;;5054734;28;20081;-71
2022/06/12 03:11:57;;;;;;;0.35;0.35;;;;;;;;;;5043571;28;20057;-70
2022/06/12 03:14:26;;;;;;;0.28;0.28;;;;;;;;;;5034839;28;20447;-71
2022/06/12 03:16:57;;;;;;;0.00;0.00;;;;;;;;;;5032432;28;20060;-70
2022/06/12 03:19:27;;;;;;;0.00;0.00;;;;;;;;;;5033255;28;20539;-70
2022/06/12 03:22:01;;;;;;;0.05;0.05;;;;;;;;;;5033365;28;20049;-71
2022/06/12 03:24:37;;;;;;;0.00;0.00;;;;;;;;;;5032676;28;20096;-71
2022/06/12 03:27:15;;;;;;;0.10;0.10;;;;;;;;;;5032508;28;20056;-71
2022/06/12 03:29:48;;;;;;;0.57;0.57;;;;;;;;;;5033239;28;20103;-70
2022/06/12 03:32:20;;;;;;;0.00;0.00;;;;;;;;;;5032850;28;20422;-71
2022/06/12 03:34:54;;;;;;;0.10;0.10;;;;;;;;;;5037908;28;20045;-70
2022/06/12 03:37:26;;;;;;;0.00;0.00;;;;;;;;;;5048707;28;20044;-71
2022/06/12 03:39:59;;;;;;;0.00;0.00;;;;;;;;;;5052688;28;20080;-71
2022/06/12 03:42:30;;;;;;;0.00;0.00;;;;;;;;;;5052710;28;20102;-71
2022/06/12 03:45:01;;;;;;;0.00;0.00;;;;;;;;;;5049287;28;21089;-71
2022/06/12 03:47:33;;;;;;;0.20;0.20;;;;;;;;;;5031911;28;20166;-71
2022/06/12 03:50:03;;;;;;;0.00;0.00;;;;;;;;;;5032703;28;20053;-71
2022/06/12 03:52:33;;;;;;;0.03;0.03;;;;;;;;;;5048140;28;20110;-71
2022/06/12 03:55:06;;;;;;;0.10;0.10;;;;;;;;;;5052522;28;20049;-70
2022/06/12 03:57:51;;;;;;;0.00;0.00;;;;;;;;;;5052192;28;20041;-71
2022/06/12 04:00:22;;;;;;;0.10;0.10;;;;;;;;;;5052103;28;20496;-70
2022/06/12 04:02:55;;;;;;;0.00;0.00;;;;;;;;;;5037067;28;20049;-70
2022/06/12 04:05:26;;;;;;;0.10;0.10;;;;;;;;;;5049008;28;20485;-71
2022/06/12 04:07:57;;;;;;;0.00;0.00;;;;;;;;;;5051654;28;20136;-71
2022/06/12 04:10:27;;;;;;;0.00;0.00;;;;;;;;;;5051649;28;20087;-71
2022/06/12 04:12:56;;;;;;;0.10;0.10;;;;;;;;;;5044910;28;20049;-71
2022/06/12 04:15:28;;;;;;;0.03;0.03;;;;;;;;;;5051611;28;20060;-71
2022/06/12 04:18:00;;;;;;;0.00;0.00;;;;;;;;;;5050322;28;20085;-71
2022/06/12 04:20:34;;;;;;;0.10;0.10;;;;;;;;;;5036760;28;20049;-71
2022/06/12 04:23:03;;;;;;;0.00;0.00;;;;;;;;;;5031300;28;20081;-71
2022/06/12 04:25:35;;;;;;;0.00;0.00;;;;;;;;;;5031948;28;20401;-71
2022/06/12 04:28:04;;;;;;;0.00;0.00;;;;;;;;;;5031033;28;20061;-72
2022/06/12 04:30:35;;;;;;;0.00;0.00;;;;;;;;;;5031826;28;20045;-71
2022/06/12 04:33:17;;;;;;;0.10;0.10;;;;;;;;;;5031720;28;20080;-71
2022/06/12 04:35:49;;;;;;;0.00;0.00;;;;;;;;;;5032024;28;20080;-71
2022/06/12 04:38:18;;;;;;;0.00;0.00;;;;;;;;;;5031100;28;20085;-71
2022/06/12 04:40:47;;;;;;;0.10;0.10;;;;;;;;;;5035447;28;20049;-72
2022/06/12 04:43:16;;;;;;;0.00;0.00;;;;;;;;;;5051443;28;20049;-71
2022/06/12 04:45:45;;;;;;;0.00;0.00;;;;;;;;;;5051445;28;20501;-71
2022/06/12 04:48:18;;;;;;;0.20;0.20;;;;;;;;;;5050753;28;20140;-71
2022/06/12 04:50:46;;;;;;;0.00;0.00;;;;;;;;;;5048231;28;20111;-71
2022/06/12 04:53:16;;;;;;;0.00;0.00;;;;;;;;;;5044309;28;20042;-71
2022/06/12 04:55:44;;;;;;;0.13;0.13;;;;;;;;;;5051216;28;20049;-71
2022/06/12 04:58:12;;;;;;;0.00;0.00;;;;;;;;;;5050637;28;20048;-71
2022/06/12 05:00:42;;;;;;;0.10;0.10;;;;;;;;;;5051587;28;20049;-70
2022/06/12 05:03:12;;;;;;;0.10;0.10;;;;;;;;;;5051121;28;20080;-71
2022/06/12 05:05:42;;;;;;;0.00;0.00;;;;;;;;;;5051155;28;20049;-71
2022/06/12 05:08:11;;;;;;;0.10;0.10;;;;;;;;;;5050693;28;20128;-70
2022/06/12 05:10:40;;;;;;;0.00;0.00;;;;;;;;;;5044420;28;20088;-71
2022/06/12 05:13:09;;;;;;;0.10;0.10;;;;;;;;;;5050973;28;20321;-71
2022/06/12 05:15:37;;;;;;;0.00;0.00;;;;;;;;;;5051573;28;20077;-71
2022/06/12 05:18:06;;;;;;;0.00;0.00;;;;;;;;;;5050021;28;20552;-71
2022/06/12 05:20:37;;;;;;;0.10;0.10;;;;;;;;;;5050843;28;20444;-71
2022/06/12 05:23:07;;;;;;;0.00;0.00;;;;;;;;;;5051311;28;20045;-70
2022/06/12 05:25:36;;;;;;;0.00;0.00;;;;;;;;;;5050780;28;20053;-71
2022/06/12 05:28:04;;;;;;;0.00;0.00;;;;;;;;;;5031309;28;20100;-71
2022/06/12 05:30:35;;;;;;;0.10;0.10;;;;;;;;;;5031377;28;20049;-70
2022/06/12 05:33:03;;;;;;;0.00;0.00;;;;;;;;;;5035359;28;20103;-71
2022/06/12 05:35:33;;;;;;;0.08;0.08;;;;;;;;;;5035436;28;20405;-70
2022/06/12 05:38:01;;;;;;;0.10;0.10;;;;;;;;;;5034018;28;20042;-70
2022/06/12 05:40:33;;;;;;;0.13;0.13;;;;;;;;;;5035693;28;20148;-70
2022/06/12 05:43:01;;;;;;;0.10;0.10;;;;;;;;;;5054487;28;20103;-70
2022/06/12 05:45:31;;;;;;;0.05;0.05;;;;;;;;;;5039285;28;20072;-71
2022/06/12 05:48:01;;;;;;;0.00;0.00;;;;;;;;;;5034230;28;20132;-71
2022/06/12 05:50:31;;;;;;;0.00;0.00;;;;;;;;;;5035125;28;20087;-70
2022/06/12 05:53:00;;;;;;;0.00;0.00;;;;;;;;;;5034744;28;20084;-70
2022/06/12 05:55:29;;;;;;;0.03;0.03;;;;;;;;;;5034437;28;20521;-70
2022/06/12 05:57:59;;;;;;;0.00;0.00;;;;;;;;;;5033880;28;20136;-70
2022/06/12 06:00:28;;;;;;;0.00;0.00;;;;;;;;;;5034673;28;20076;-71
2022/06/12 06:02:57;;;;;;;0.10;0.10;;;;;;;;;;5034514;28;20128;-71
2022/06/12 06:05:26;;;;;;;0.00;0.00;;;;;;;;;;5034398;28;20041;-71
2022/06/12 06:07:56;;;;;;;0.20;0.20;;;;;;;;;;5033901;28;20053;-70
2022/06/12 06:10:26;;;;;;;0.10;0.10;;;;;;;;;;5034512;28;20115;-70
2022/06/12 06:12:55;;;;;;;0.00;0.00;;;;;;;;;;5053948;28;20045;-70
2022/06/12 06:15:26;;;;;;;0.00;0.00;;;;;;;;;;5054350;28;20463;-70
2022/06/12 06:17:54;;;;;;;0.20;0.20;;;;;;;;;;5051364;28;20048;-70
2022/06/12 06:20:25;;;;;;;0.00;0.00;;;;;;;;;;5033952;28;20481;-70
2022/06/12 06:22:54;;;;;;;0.22;0.22;;;;;;;;;;5033933;28;20049;-70
2022/06/12 06:25:24;;;;;;;0.38;0.30;;;;;;;;;;5033778;28;20128;-70
2022/06/12 06:27:53;;;;;;;0.32;0.32;;;;;;;;;;5033324;28;20075;-70
2022/06/12 06:30:23;;;;;;;0.00;0.00;;;;;;;;;;5034249;28;20045;-70
2022/06/12 06:32:53;;;;;;;0.00;0.00;;;;;;;;;;5046310;28;20044;-70
2022/06/12 06:35:22;;;;;;;0.38;0.38;;;;;;;;;;5049800;28;20091;-70
2022/06/12 06:37:51;;;;;;;0.15;0.15;;;;;;;;;;5052983;28;20104;-70
2022/06/12 06:40:23;;;;;;;0.00;0.00;;;;;;;;;;5053408;28;20048;-70
2022/06/12 06:46:14;;;;;;;0.00;0.00;;;;;;;;;;5052930;28;20090;-71
2022/06/12 06:48:44;;;;;;;0.00;0.00;;;;;;;;;;5052241;28;20511;-71
2022/06/12 06:51:13;;;;;;;0.00;0.00;;;;;;;;;;5052971;28;20132;-71
2022/06/12 06:53:42;;;;;;;0.00;0.00;;;;;;;;;;5037773;28;20128;-71
2022/06/12 06:56:11;;;;;;;0.20;0.17;;;;;;;;;;5032972;28;20061;-71
2022/06/12 06:58:40;;;;;;;0.00;0.00;;;;;;;;;;5032654;28;20053;-71
2022/06/12 07:01:08;;;;;;;0.00;0.00;;;;;;;;;;5033028;28;20053;-71
2022/06/12 07:03:43;;;;;;;0.10;0.10;;;;;;;;;;5033207;28;20073;-71
2022/06/12 07:06:13;;;;;;;0.00;0.00;;;;;;;;;;5035290;28;20049;-71
2022/06/12 07:08:42;;;;;;;0.65;0.47;;;;;;;;;;5049505;28;20052;-71
2022/06/12 07:11:11;;;;;;;0.00;0.00;;;;;;;;;;5034227;28;20049;-71
2022/06/12 07:13:40;;;;;;;0.00;0.00;;;;;;;;;;5052151;28;20552;-71
2022/06/12 07:16:09;;;;;;;0.17;0.17;;;;;;;;;;5052522;28;20056;-71
2022/06/12 07:18:37;;;;;;;0.10;0.10;;;;;;;;;;5052259;28;20140;-71
2022/06/12 07:21:06;;;;;;;0.00;0.00;;;;;;;;;;5052591;28;20436;-71
2022/06/12 07:23:37;;;;;;;0.38;0.38;;;;;;;;;;5052612;28;20492;-71
2022/06/12 07:26:09;;;;;;;0.00;0.00;;;;;;;;;;5048388;28;20045;-71
2022/06/12 07:28:39;;;;;;;0.00;0.00;;;;;;;;;;5032050;28;20061;-71
2022/06/12 07:31:08;;;;;;;0.00;0.00;;;;;;;;;;5032762;28;20080;-71
2022/06/12 07:33:38;;;;;;;0.00;0.00;;;;;;;;;;5032729;28;20046;-71
2022/06/12 07:36:07;;;;;;;0.00;0.00;;;;;;;;;;5032589;28;20045;-71
2022/06/12 07:38:37;;;;;;;0.00;0.00;;;;;;;;;;5031808;28;20127;-71
2022/06/12 07:41:26;;;;;;;0.00;0.00;;;;;;;;;;5032686;28;20045;-71
2022/06/12 07:43:54;;;;;;;0.17;0.17;;;;;;;;;;5031336;28;20042;-71
2022/06/12 07:46:23;;;;;;;0.35;0.35;;;;;;;;;;5031464;28;20493;-71
2022/06/12 07:48:57;;;;;;;0.00;0.00;;;;;;;;;;5031354;28;20061;-71
2022/06/12 07:51:26;;;;;;;0.10;0.10;;;;;;;;;;5038685;28;20114;-71
2022/06/12 07:53:56;;;;;;;0.05;0.05;;;;;;;;;;5051180;28;20053;-71
2022/06/12 07:56:26;;;;;;;0.00;0.00;;;;;;;;;;5048948;28;20131;-71
2022/06/12 07:58:54;;;;;;;0.00;0.00;;;;;;;;;;5051019;28;20057;-71
2022/06/12 08:01:26;;;;;;;0.00;0.00;;;;;;;;;;5036585;28;20144;-71
2022/06/12 08:03:56;;;;;;;0.00;0.00;;;;;;;;;;5032106;28;20053;-71
2022/06/12 08:06:25;;;;;;;0.00;0.00;;;;;;;;;;5032456;28;20104;-71
2022/06/12 08:08:56;;;;;;;0.00;0.00;;;;;;;;;;5031584;28;20073;-71
2022/06/12 08:11:31;;;;;;;0.00;0.00;;;;;;;;;;5040936;28;20044;-71
2022/06/12 08:14:00;;;;;;;0.00;0.00;;;;;;;;;;5051890;28;20052;-71
2022/06/12 08:16:29;;;;;;;0.00;0.00;;;;;;;;;;5052381;28;20049;-71
2022/06/12 08:18:58;;;;;;;0.00;0.00;;;;;;;;;;5032117;28;20077;-71
2022/06/12 08:21:27;;;;;;;0.00;0.00;;;;;;;;;;5032134;28;20108;-71
2022/06/12 08:23:57;;;;;;;0.00;0.00;;;;;;;;;;5032370;28;20049;-71
2022/06/12 08:26:27;;;;;;;0.00;0.00;;;;;;;;;;5032469;28;20045;-71
2022/06/12 08:28:59;;;;;;;0.17;0.17;;;;;;;;;;5032528;28;20041;-71
2022/06/12 08:31:28;;;;;;;0.00;0.00;;;;;;;;;;5032738;28;20084;-71
2022/06/12 08:33:58;;;;;;;0.00;0.00;;;;;;;;;;5032258;28;20049;-71
2022/06/12 08:36:27;;;;;;;0.00;0.00;;;;;;;;;;5032222;28;20045;-70
2022/06/12 08:38:56;;;;;;;0.00;0.00;;;;;;;;;;5031089;28;20076;-71
2022/06/12 08:41:27;;;;;;;0.00;0.00;;;;;;;;;;5041692;28;20045;-71
2022/06/12 08:44:06;;;;;;;0.35;0.20;;;;;;;;;;5051459;28;20080;-71
2022/06/12 08:46:38;;;;;;;0.00;0.00;;;;;;;;;;5051342;28;20473;-71
2022/06/12 08:49:10;;;;;;;0.08;0.00;;;;;;;;;;5051395;28;20045;-71
2022/06/12 08:51:41;;;;;;;0.05;0.05;;;;;;;;;;5036246;28;20477;-71
2022/06/12 08:54:12;;;;;;;0.00;0.00;;;;;;;;;;5031326;28;20204;-71
2022/06/12 08:56:43;;;;;;;0.13;0.13;;;;;;;;;;5030697;28;20140;-71
2022/06/12 08:59:15;;;;;;;0.00;0.00;;;;;;;;;;5031570;28;20085;-71
2022/06/12 09:01:44;;;;;;;0.00;0.00;;;;;;;;;;5030451;28;20453;-71
2022/06/12 09:04:14;;;;;;;0.00;0.00;;;;;;;;;;5031245;28;20049;-71
2022/06/12 09:06:46;;;;;;;0.00;0.00;;;;;;;;;;5030028;28;20394;-71
2022/06/12 09:09:25;;;;;;;0.00;0.00;;;;;;;;;;5031160;28;20052;-70
2022/06/12 09:11:56;;;;;;;0.20;0.20;;;;;;;;;;5043428;28;20469;-71
2022/06/12 09:14:32;;;;;;;0.10;0.10;;;;;;;;;;5050799;28;20090;-71
2022/06/12 09:17:07;;;;;;;0.00;0.00;;;;;;;;;;5049627;28;20045;-71
2022/06/12 09:19:39;;;;;;;0.00;0.00;;;;;;;;;;5050930;28;20128;-71
2022/06/12 09:22:12;;;;;;;0.00;0.00;;;;;;;;;;5050878;28;20040;-70
2022/06/12 09:24:45;;;;;;;0.00;0.00;;;;;;;;;;5050705;28;20079;-71
2022/06/12 09:27:16;;;;;;;0.00;0.00;;;;;;;;;;5029904;28;20562;-71
2022/06/12 09:29:49;;;;;;;0.13;0.13;;;;;;;;;;5022791;28;20501;-71
2022/06/12 09:32:21;;;;;;;0.00;0.00;;;;;;;;;;5030142;28;20060;-71
2022/06/12 09:34:55;;;;;;;0.00;0.00;;;;;;;;;;5031157;28;20067;-71
2022/06/12 09:40:19;;;;;;;3.92;0.95;;;;;;;;;;5030527;28;20136;-71
2022/06/12 09:42:56;;;;;;;0.00;0.00;;;;;;;;;;5030744;28;20480;-71
2022/06/12 09:45:29;;;;;;;0.22;0.22;;;;;;;;;;5030370;28;20049;-71
2022/06/12 09:48:03;;;;;;;0.00;0.00;;;;;;;;;;5030279;28;20080;-71
2022/06/12 09:50:38;;;;;;;0.00;0.00;;;;;;;;;;5030352;28;20390;-71
2022/06/12 09:53:06;;;;;;;;;;;;;;;;;;5030836;28;20053;-71
2022/06/12 09:55:37;;;;;;;0.15;0.15;;;;;;;;;;5031035;28;19929;-71
2022/06/12 09:58:11;;;;;;;0.10;0.10;;;;;;;;;;5030306;28;20108;-71
2022/06/12 10:00:43;;;;;;;0.00;0.00;;;;;;;;;;5030759;28;20080;-70
2022/06/12 10:03:17;;;;;;;0.00;0.00;;;;;;;;;;5030151;28;20448;-71
2022/06/12 10:05:47;;;;;;;;;;;;;;;;;;5030552;28;20152;-71
2022/06/12 10:08:24;;;;;;;0.00;0.00;;;;;;;;;;5030001;28;20324;-71
2022/06/12 10:10:54;;;;;;;0.00;0.00;;;;;;;;;;5034595;28;20060;-71
2022/06/12 10:13:24;;;;;;;0.47;0.32;;;;;;;;;;5050709;28;20100;-71
2022/06/12 10:15:57;;;;;;;0.10;0.10;;;;;;;;;;5048381;28;20068;-71
2022/06/12 10:18:28;;;;;;;0.55;0.28;;;;;;;;;;5033002;28;20063;-71
2022/06/12 10:21:00;;;;;;;0.15;0.15;;;;;;;;;;5034575;28;20468;-70
2022/06/12 10:23:29;;;;;;;0.20;0.10;;;;;;;;;;5033913;28;20103;-71
2022/06/12 10:25:59;;;;;;;0.00;0.00;;;;;;;;;;5061210;28;20080;-71
2022/06/12 10:28:29;;;;;;;0.00;0.00;;;;;;;;;;5033427;28;20060;-71
2022/06/12 10:31:18;;;;;;;0.35;0.35;;;;;;;;;;5034334;28;20045;-71
2022/06/12 10:33:52;;;;;;;1.33;0.38;;;;;;;;;;5034136;28;20140;-71
2022/06/12 10:36:23;;;;;;;0.15;0.15;;;;;;;;;;5033518;28;20504;-71
2022/06/12 10:38:51;;;;;;;0.00;0.00;;;;;;;;;;5033262;28;20393;-70
2022/06/12 10:41:23;;;;;;;0.00;0.00;;;;;;;;;;5037296;28;20080;-71
2022/06/12 10:43:53;;;;;;;0.00;0.00;;;;;;;;;;5054486;28;20095;-71
2022/06/12 10:46:25;;;;;;;0.00;0.00;;;;;;;;;;5053647;28;20060;-71
2022/06/12 10:48:58;;;;;;;0.10;0.10;;;;;;;;;;5053175;28;20084;-70
2022/06/12 10:51:29;;;;;;;0.00;0.00;;;;;;;;;;5045568;28;20069;-71
2022/06/12 10:53:58;;;;;;;0.08;0.08;;;;;;;;;;5053366;28;20064;-71
2022/06/12 10:56:32;;;;;;;0.10;0.10;;;;;;;;;;5053341;28;20484;-71
2022/06/12 10:59:09;;;;;;;0.28;0.28;;;;;;;;;;5052568;28;20131;-70
2022/06/12 11:01:43;;;;;;;0.28;0.20;;;;;;;;;;5053513;28;20041;-72
2022/06/12 11:04:20;;;;;;;0.00;0.00;;;;;;;;;;5053411;28;20057;-71
2022/06/12 11:06:50;;;;;;;0.03;0.03;;;;;;;;;;5045844;28;20132;-71
2022/06/12 11:09:25;;;;;;;0.10;0.05;;;;;;;;;;5012989;28;20089;-71
2022/06/12 11:12:00;;;;;;;0.00;0.00;;;;;;;;;;5026156;28;20287;-71
2022/06/12 11:14:38;;;;;;;0.00;0.00;;;;;;;;;;5033479;28;20088;-71
2022/06/12 11:17:15;;;;;;;0.00;0.00;;;;;;;;;;5032628;28;20466;-71
2022/06/12 11:19:50;;;;;;;0.30;0.30;;;;;;;;;;5048589;28;20158;-70
2022/06/12 11:22:28;;;;;;;0.10;0.10;;;;;;;;;;5052901;28;20194;-70
2022/06/12 11:25:01;;;;;;;0.00;0.00;;;;;;;;;;5031497;28;20046;-69
2022/06/12 11:27:38;;;;;;;0.00;0.00;;;;;;;;;;5012541;28;20057;-69
2022/06/12 11:30:13;;;;;;;0.00;0.00;;;;;;;;;;5012209;28;20128;-69
2022/06/12 11:32:57;;;;;;;0.00;0.00;;;;;;;;;;5031038;28;20053;-69
2022/06/12 11:35:31;;;;;;;0.00;0.00;;;;;;;;;;5032786;28;20041;-70
2022/06/12 11:38:11;;;;;;;0.00;0.00;;;;;;;;;;5032107;28;20053;-70
2022/06/12 11:40:44;;;;;;;0.00;0.00;;;;;;;;;;5032052;28;20135;-70
2022/06/12 11:43:19;;;;;;;0.00;0.00;;;;;;;;;;5012883;28;20046;-70
2022/06/12 11:45:54;;;;;;;0.10;0.00;;;;;;;;;;5004859;28;20050;-70
2022/06/12 11:48:40;;;;;;;0.20;0.10;;;;;;;;;;5012269;28;20042;-70
2022/06/12 11:51:19;;;;;;;0.15;0.15;;;;;;;;;;5018620;28;20057;-70
2022/06/12 11:53:52;;;;;;;0.00;0.00;;;;;;;;;;5032719;28;20049;-71
2022/06/12 11:56:31;;;;;;;0.00;0.00;;;;;;;;;;5032254;28;20053;-70
2022/06/12 11:59:07;;;;;;;0.00;0.00;;;;;;;;;;5021160;28;20132;-71
2022/06/12 12:01:39;;;;;;;0.00;0.00;;;;;;;;;;5012611;28;20077;-71
2022/06/12 12:04:25;;;;;;;0.00;0.00;;;;;;;;;;5012871;28;20080;-71
2022/06/12 12:07:13;;;;;;;0.00;0.00;;;;;;;;;;5012409;28;20153;-70
2022/06/12 12:09:49;;;;;;;0.00;0.00;;;;;;;;;;5013214;28;20113;-71
2022/06/12 12:12:19;;;;;;;0.00;0.00;;;;;;;;;;5028198;28;20064;-70
2022/06/12 12:14:49;;;;;;;0.00;0.00;;;;;;;;;;5031264;28;20049;-70
2022/06/12 12:17:19;;;;;;;0.00;0.00;;;;;;;;;;5012017;28;20101;-70
2022/06/12 12:19:51;;;;;;;0.00;0.00;;;;;;;;;;5012503;28;20092;-70
2022/06/12 12:22:25;;;;;;;0.00;0.00;;;;;;;;;;5024707;28;20056;-71
2022/06/12 12:24:55;;;;;;;0.00;0.00;;;;;;;;;;5032431;28;20404;-70
2022/06/12 12:27:28;;;;;;;0.00;0.00;;;;;;;;;;5019257;28;20126;-70
2022/06/12 12:29:56;;;;;;;0.00;0.00;;;;;;;;;;5012839;28;20112;-71
2022/06/12 12:32:25;;;;;;;0.00;0.00;;;;;;;;;;5012467;28;20081;-69
2022/06/12 12:34:56;;;;;;;0.00;0.00;;;;;;;;;;5011913;28;20097;-69
2022/06/12 12:43:16;;;;;;;0.10;0.10;;;;;;;;;;5011650;28;20488;-71
2022/06/12 12:45:45;;;;;;;0.00;0.00;;;;;;;;;;5012255;28;20133;-70
2022/06/12 12:48:15;;;;;;;0.00;0.00;;;;;;;;;;5011282;28;20108;-71
2022/06/12 12:50:46;;;;;;;0.05;0.05;;;;;;;;;;5013151;28;20136;-71
2022/06/12 12:53:22;;;;;;;0.00;0.00;;;;;;;;;;5039583;28;20072;-70
2022/06/12 12:56:04;;;;;;;0.00;0.00;;;;;;;;;;5051589;28;20468;-71
2022/06/12 12:58:33;;;;;;;0.00;0.00;;;;;;;;;;5050839;28;20055;-71
2022/06/12 13:01:05;;;;;;;0.00;0.00;;;;;;;;;;5051164;28;20071;-71
2022/06/12 13:03:38;;;;;;;0.00;0.00;;;;;;;;;;5050787;28;20060;-71
2022/06/12 13:06:17;;;;;;;0.00;0.00;;;;;;;;;;5042762;28;20038;-71
2022/06/12 13:08:59;;;;;;;0.00;0.00;;;;;;;;;;5011272;28;20453;-70
2022/06/12 13:11:35;;;;;;;0.00;0.00;;;;;;;;;;5020407;28;20077;-70
2022/06/12 13:14:11;;;;;;;0.00;0.00;;;;;;;;;;5031227;28;20060;-70
2022/06/12 13:16:49;;;;;;;0.03;0.03;;;;;;;;;;5030986;28;20081;-71
2022/06/12 13:19:34;;;;;;;0.00;0.00;;;;;;;;;;5031095;28;20071;-70
2022/06/12 13:22:11;;;;;;;0.13;0.10;;;;;;;;;;5031088;28;20045;-70
2022/06/12 13:24:41;;;;;;;0.10;0.10;;;;;;;;;;5014611;28;20042;-71
2022/06/12 13:27:13;;;;;;;0.00;0.00;;;;;;;;;;5010913;28;20046;-71
2022/06/12 13:29:46;;;;;;;0.00;0.00;;;;;;;;;;5011378;28;20062;-71
2022/06/12 13:32:21;;;;;;;0.00;0.00;;;;;;;;;;5011488;28;20057;-71
2022/06/12 13:35:10;;;;;;;;;;;;;;;;;;5012081;28;20085;-71
2022/06/12 13:37:40;;;;;;;0.00;0.00;;;;;;;;;;5010434;28;19930;-71
2022/06/12 13:40:23;;;;;;;0.15;0.15;;;;;;;;;;5011837;28;20049;-70
2022/06/12 13:42:51;;;;;;;0.00;0.00;;;;;;;;;;5011951;28;20100;-71
2022/06/12 13:45:23;;;;;;;0.03;0.03;;;;;;;;;;5011487;28;20085;-71
2022/06/12 13:47:51;;;;;;;0.10;0.10;;;;;;;;;;5011123;28;20046;-71
2022/06/12 13:50:38;;;;;;;0.00;0.00;;;;;;;;;;5012098;28;20498;-71
2022/06/12 13:53:16;;;;;;;0.00;0.00;;;;;;;;;;5040787;28;20069;-71
2022/06/12 13:55:50;;;;;;;0.00;0.00;;;;;;;;;;5055411;28;20098;-70
2022/06/12 13:58:20;;;;;;;0.10;0.10;;;;;;;;;;5039637;28;20057;-70
2022/06/12 14:00:50;;;;;;;0.08;0.08;;;;;;;;;;5034116;28;20045;-71
2022/06/12 14:03:20;;;;;;;0.10;0.10;;;;;;;;;;5034407;28;20060;-71
2022/06/12 14:05:52;;;;;;;0.22;0.22;;;;;;;;;;5034253;28;20096;-71
2022/06/12 14:08:23;;;;;;;0.00;0.00;;;;;;;;;;5033881;28;20374;-71
2022/06/12 14:10:52;;;;;;;0.00;0.00;;;;;;;;;;5038442;28;20045;-71
2022/06/12 14:13:25;;;;;;;0.00;0.00;;;;;;;;;;5054648;28;20118;-70
2022/06/12 14:15:54;;;;;;;0.00;0.00;;;;;;;;;;5035672;28;20089;-71
2022/06/12 14:18:24;;;;;;;0.00;0.00;;;;;;;;;;5033508;28;20057;-71
2022/06/12 14:21:00;;;;;;;0.00;0.00;;;;;;;;;;5033951;28;20060;-70
2022/06/12 14:23:35;;;;;;;0.00;0.00;;;;;;;;;;5033979;28;20045;-71
2022/06/12 14:26:14;;;;;;;0.17;0.17;;;;;;;;;;5034303;28;20049;-71
2022/06/12 14:28:42;;;;;;;0.00;0.00;;;;;;;;;;5033815;28;20073;-71
2022/06/12 14:31:12;;;;;;;0.40;0.40;;;;;;;;;;5034300;28;20148;-71
2022/06/12 14:33:52;;;;;;;0.00;0.00;;;;;;;;;;5034565;28;20068;-71
2022/06/12 14:36:29;;;;;;;0.20;0.20;;;;;;;;;;5034318;28;20080;-71
2022/06/12 14:39:10;;;;;;;0.25;0.10;;;;;;;;;;5032810;28;20111;-71
2022/06/12 14:41:47;;;;;;;0.00;0.00;;;;;;;;;;5034243;28;20045;-71
2022/06/12 14:44:16;;;;;;;0.00;0.00;;;;;;;;;;5033811;28;20056;-71
2022/06/12 14:46:45;;;;;;;0.00;0.00;;;;;;;;;;5032738;28;20049;-71
2022/06/12 14:49:18;;;;;;;0.00;0.00;;;;;;;;;;5034102;28;20497;-71
2022/06/12 14:51:47;;;;;;;0.00;0.00;;;;;;;;;;5043784;28;20088;-71
2022/06/12 14:54:18;;;;;;;0.28;0.28;;;;;;;;;;5053518;28;20095;-71
2022/06/12 14:56:47;;;;;;;0.20;0.20;;;;;;;;;;5052648;28;20049;-71
2022/06/12 14:59:17;;;;;;;0.00;0.00;;;;;;;;;;5053519;28;20044;-71
2022/06/12 15:01:46;;;;;;;0.00;0.00;;;;;;;;;;5053716;28;20112;-71
2022/06/12 15:04:16;;;;;;;0.00;0.00;;;;;;;;;;5052302;28;20068;-71
2022/06/12 15:06:44;;;;;;;0.15;0.15;;;;;;;;;;5044210;28;20041;-71
2022/06/12 15:09:13;;;;;;;0.00;0.00;;;;;;;;;;5055091;28;20048;-69
2022/06/12 15:11:43;;;;;;;0.00;0.00;;;;;;;;;;5053040;28;20048;-70
2022/06/12 15:14:14;;;;;;;0.00;0.00;;;;;;;;;;5053202;28;20078;-70
2022/06/12 15:16:43;;;;;;;0.15;0.15;;;;;;;;;;5052390;28;20045;-70
2022/06/12 15:19:11;;;;;;;0.00;0.00;;;;;;;;;;5053337;28;20048;-70
2022/06/12 15:21:42;;;;;;;0.00;0.00;;;;;;;;;;5051938;28;20492;-70
2022/06/12 15:24:14;;;;;;;0.00;0.00;;;;;;;;;;5032793;28;20378;-70
2022/06/12 15:29:49;;;;;;;0.00;0.00;;;;;;;;;;5032880;28;20052;-70